Time;durP1;ratioP1;P1;durP2;ratioP2;P2;SDS_P1;SDS_P2;PMS_P1;PMS_P2;Temp;Humidity;BMP_temperature;BMP_pressure;BME280_temperature;BME280_humidity;BME280_pressure;Samples;Min_cycle;Max_cycle;Signal;HPM_P1;HPM_P2
2023/03/02 00:02:02;;;;;;;10.90;5.00;;;;;;;0.34;77.79;99523.53;105687;1260;74896;-26
2023/03/02 00:04:33;;;;;;;9.40;4.90;;;;;;;0.13;78.33;99531.16;105720;1257;61184;-25
2023/03/02 00:07:06;;;;;;;9.80;5.20;;;;;;;-0.12;79.41;99530.39;105765;1257;61650;-26
2023/03/02 00:09:35;;;;;;;9.80;6.00;;;;;;;-0.32;80.15;99532.32;105749;1253;74435;-25
2023/03/02 00:12:05;;;;;;;7.60;3.80;;;;;;;-0.43;80.74;99524.79;105721;1258;75756;-25
2023/03/02 00:14:36;;;;;;;9.10;4.80;;;;;;;0.10;80.09;99518.77;105729;1253;72880;-25
2023/03/02 00:17:06;;;;;;;9.30;5.30;;;;;;;0.66;78.11;99527.09;105938;1258;61952;-25
2023/03/02 00:19:35;;;;;;;10.30;4.70;;;;;;;0.70;77.28;99524.73;105715;1257;61834;-26
2023/03/02 00:22:04;;;;;;;9.10;4.60;;;;;;;0.55;77.35;99520.80;105902;1256;74089;-25
2023/03/02 00:24:33;;;;;;;8.60;4.50;;;;;;;0.36;77.74;99520.39;105835;1253;75827;-26
2023/03/02 00:27:01;;;;;;;8.70;5.20;;;;;;;0.14;78.48;99511.70;105686;1257;74348;-25
2023/03/02 00:29:30;;;;;;;8.30;5.40;;;;;;;-0.04;79.08;99507.63;105714;1252;61062;-26
2023/03/02 00:32:00;;;;;;;9.80;5.00;;;;;;;-0.22;79.88;99503.36;105928;1257;61855;-25
2023/03/02 00:34:31;;;;;;;8.50;4.30;;;;;;;-0.36;80.86;99503.59;105879;1253;75501;-25
2023/03/02 00:36:59;;;;;;;10.60;4.90;;;;;;;0.12;80.26;99506.27;105707;1257;73996;-25
2023/03/02 00:39:29;;;;;;;8.50;4.80;;;;;;;0.66;78.36;99511.55;105730;1257;74097;-25
2023/03/02 00:41:57;;;;;;;9.30;5.60;;;;;;;0.73;77.40;99506.02;105898;1253;61628;-26
2023/03/02 00:44:26;;;;;;;9.70;5.20;;;;;;;0.56;77.50;99505.91;105918;1252;61574;-26
2023/03/02 00:46:54;;;;;;;9.20;5.50;;;;;;;0.35;78.04;99502.33;105701;1253;75534;-26
2023/03/02 00:49:24;;;;;;;9.80;5.00;;;;;;;0.09;78.90;99501.07;104496;1253;1907488;-25
2023/03/02 00:51:57;;;;;;;9.40;5.30;;;;;;;-0.11;79.81;99497.43;105714;1253;74206;-25
2023/03/02 00:54:27;;;;;;;11.20;5.70;;;;;;;-0.30;80.53;99500.54;105559;1253;61131;-25
2023/03/02 00:56:55;;;;;;;10.70;5.30;;;;;;;-0.41;81.37;99502.05;105584;1253;62041;-26
2023/03/02 00:59:27;;;;;;;8.60;4.70;;;;;;;0.13;80.95;99494.63;105586;1253;75392;-25
2023/03/02 01:02:02;;;;;;;11.70;5.50;;;;;;;0.67;79.06;99491.02;105545;1257;75364;-26
2023/03/02 01:04:38;;;;;;;13.30;6.10;;;;;;;0.72;78.02;99489.82;105813;1256;74177;-25
2023/03/02 01:07:11;;;;;;;12.50;5.30;;;;;;;0.60;78.08;99489.02;105714;1253;61189;-26
2023/03/02 01:09:41;;;;;;;13.50;6.30;;;;;;;0.41;78.33;99489.98;105850;1253;60983;-25
2023/03/02 01:12:10;;;;;;;10.10;6.20;;;;;;;0.21;78.71;99485.33;105442;1253;75103;-25
2023/03/02 01:14:41;;;;;;;11.50;5.90;;;;;;;0.01;79.21;99484.94;105539;1258;75833;-25
2023/03/02 01:17:10;;;;;;;11.00;6.00;;;;;;;-0.17;79.68;99486.83;105442;1258;74678;-25
2023/03/02 01:19:39;;;;;;;8.20;4.20;;;;;;;-0.29;80.53;99487.03;105625;1257;61714;-26
2023/03/02 01:22:07;;;;;;;13.20;5.60;;;;;;;0.19;80.65;99484.04;105495;1258;61889;-26
2023/03/02 01:24:42;;;;;;;11.50;5.60;;;;;;;0.85;78.71;99483.08;105443;1254;75121;-25
2023/03/02 01:27:12;;;;;;;10.40;5.90;;;;;;;0.93;77.56;99481.60;105548;1253;75344;-26
2023/03/02 01:29:40;;;;;;;10.10;5.90;;;;;;;0.76;77.64;99484.41;105531;1253;74220;-25
2023/03/02 01:32:09;;;;;;;9.90;5.30;;;;;;;0.51;77.96;99478.55;105481;1253;61146;-26
2023/03/02 01:34:38;;;;;;;13.00;6.30;;;;;;;0.27;78.72;99469.78;105567;1253;61821;-26
2023/03/02 01:37:06;;;;;;;14.80;7.00;;;;;;;0.06;79.42;99468.73;105505;1253;74431;-26
2023/03/02 01:39:35;;;;;;;11.30;6.30;;;;;;;-0.11;80.02;99469.09;105499;1255;75802;-25
2023/03/02 01:42:05;;;;;;;8.80;5.10;;;;;;;-0.24;80.45;99462.81;105539;1253;73130;-26
2023/03/02 01:44:35;;;;;;;7.70;5.10;;;;;;;0.24;80.45;99463.53;105493;1253;61118;-25
2023/03/02 01:47:12;;;;;;;10.50;6.10;;;;;;;0.86;78.71;99461.16;105588;1253;61843;-26
2023/03/02 01:49:54;;;;;;;9.90;5.50;;;;;;;0.92;77.51;99463.86;105562;1253;75287;-26
2023/03/02 01:52:26;;;;;;;10.40;5.90;;;;;;;0.73;77.51;99456.83;105444;1253;75980;-24
2023/03/02 01:54:57;;;;;;;12.00;6.30;;;;;;;0.51;77.81;99460.13;105450;1258;73160;-25
2023/03/02 01:57:28;;;;;;;11.10;6.40;;;;;;;0.26;78.56;99457.52;105546;1253;61130;-25
2023/03/02 01:59:59;;;;;;;12.70;6.40;;;;;;;0.05;79.46;99459.36;105366;1254;61020;-25
2023/03/02 02:02:28;;;;;;;11.80;6.80;;;;;;;-0.13;80.07;99455.14;105516;1255;74401;-25
2023/03/02 02:04:59;;;;;;;9.30;5.50;;;;;;;-0.26;80.65;99453.51;105546;1253;75740;-25
2023/03/02 02:07:28;;;;;;;11.30;5.90;;;;;;;0.21;80.10;99450.31;105549;1253;74058;-25
2023/03/02 02:10:00;;;;;;;10.30;5.90;;;;;;;0.74;78.08;99451.48;105540;1253;61861;-25
2023/03/02 02:12:29;;;;;;;12.10;6.50;;;;;;;0.80;77.23;99447.52;105592;1258;61656;-25
2023/03/02 02:15:00;;;;;;;12.40;7.10;;;;;;;0.65;77.23;99445.98;105541;1256;74525;-25
2023/03/02 02:17:28;;;;;;;10.40;6.90;;;;;;;0.43;77.55;99443.80;105789;1253;75947;-25
2023/03/02 02:20:06;;;;;;;10.90;7.30;;;;;;;0.22;78.26;99439.55;105654;1253;74245;-25
2023/03/02 02:22:56;;;;;;;15.00;7.00;;;;;;;-0.02;78.99;99437.23;105724;1253;61096;-25
2023/03/02 02:25:55;;;;;;;9.00;5.60;;;;;;;-0.26;80.26;99436.25;105694;1258;61606;-25
2023/03/02 02:28:28;;;;;;;10.00;5.90;;;;;;;-0.17;80.60;99439.73;105698;1253;75330;-25
2023/03/02 02:31:09;;;;;;;11.50;6.90;;;;;;;0.58;78.72;99436.63;105595;1259;76344;-25
2023/03/02 02:33:37;;;;;;;12.50;6.00;;;;;;;0.86;76.93;99433.45;105604;1253;73941;-25
2023/03/02 02:36:08;;;;;;;12.90;7.50;;;;;;;0.73;76.60;99431.15;105301;1253;61798;-25
2023/03/02 02:38:39;;;;;;;12.50;7.20;;;;;;;0.47;77.32;99425.05;105323;1261;61835;-25
2023/03/02 02:41:11;;;;;;;15.00;7.90;;;;;;;0.19;78.23;99421.19;105601;1257;74272;-25
2023/03/02 02:43:40;;;;;;;12.30;6.70;;;;;;;-0.04;79.12;99422.60;105395;1253;75808;-25
2023/03/02 02:46:09;;;;;;;13.20;7.90;;;;;;;-0.23;80.17;99423.70;105665;1256;74282;-25
2023/03/02 02:48:37;;;;;;;12.30;6.00;;;;;;;-0.34;80.70;99426.59;105734;1253;62496;-25
2023/03/02 02:51:07;;;;;;;10.80;5.10;;;;;;;0.15;80.16;99429.84;105716;1253;61869;-25
2023/03/02 02:53:59;;;;;;;20.50;7.20;;;;;;;0.67;77.95;99428.12;105580;1253;74964;-25
2023/03/02 02:56:36;;;;;;;14.10;7.80;;;;;;;0.72;76.85;99432.41;105690;1260;75901;-25
2023/03/02 02:59:07;;;;;;;14.30;8.10;;;;;;;0.53;77.17;99430.15;105591;1254;72890;-25
2023/03/02 03:01:37;;;;;;;11.00;7.30;;;;;;;0.29;77.87;99435.89;105654;1253;61068;-25
2023/03/02 03:04:06;;;;;;;15.10;8.70;;;;;;;0.03;78.91;99435.54;105724;1253;61177;-25
2023/03/02 03:06:40;;;;;;;16.60;8.30;;;;;;;-0.14;79.79;99437.95;105862;1253;75403;-25
2023/03/02 03:09:10;;;;;;;10.60;5.70;;;;;;;-0.27;80.54;99440.38;105677;1253;75029;-25
2023/03/02 03:11:53;;;;;;;13.50;7.30;;;;;;;0.30;79.66;99440.29;105662;1253;74026;-25
2023/03/02 03:22:00;;;;;;;18.50;9.10;;;;;;;0.40;78.06;99442.04;102688;1294;599453;-26
2023/03/02 03:24:38;;;;;;;16.10;9.30;;;;;;;0.14;78.93;99443.20;104785;1267;61265;-27
2023/03/02 03:27:07;;;;;;;18.60;10.20;;;;;;;0.01;79.65;99437.80;105116;1267;61782;-26
2023/03/02 03:29:39;;;;;;;13.80;8.40;;;;;;;-0.16;80.40;99440.02;105026;1265;72213;-26
2023/03/02 03:32:08;;;;;;;13.40;7.60;;;;;;;-0.25;80.80;99438.79;104847;1275;75840;-26
2023/03/02 03:34:40;;;;;;;14.60;7.20;;;;;;;0.26;80.38;99437.70;103386;1270;1949549;-27
2023/03/02 03:37:29;;;;;;;13.10;8.20;;;;;;;0.79;78.34;99434.21;104922;1264;61508;-26
2023/03/02 03:40:05;;;;;;;15.00;8.90;;;;;;;0.80;77.65;99430.41;104963;1268;61816;-26
2023/03/02 03:42:36;;;;;;;15.30;8.50;;;;;;;0.58;77.77;99430.29;104799;1269;72474;-26
2023/03/02 03:45:07;;;;;;;13.20;8.30;;;;;;;0.33;78.68;99431.48;104897;1269;76278;-26
2023/03/02 03:47:37;;;;;;;15.20;8.50;;;;;;;0.11;79.54;99436.13;104778;1269;73168;-26
2023/03/02 03:50:07;;;;;;;18.40;10.00;;;;;;;-0.08;80.26;99433.85;105037;1269;61173;-25
2023/03/02 03:52:37;;;;;;;11.60;6.50;;;;;;;-0.18;81.04;99439.09;104845;1271;61706;-25
2023/03/02 03:55:11;;;;;;;15.70;8.70;;;;;;;0.29;80.51;99446.83;105453;1263;73401;-25
2023/03/02 03:57:42;;;;;;;15.40;8.40;;;;;;;0.77;78.69;99447.80;105097;1264;74553;-25
2023/03/02 04:00:18;;;;;;;19.70;10.20;;;;;;;0.75;78.04;99444.28;105520;1260;74210;-26
2023/03/02 04:02:50;;;;;;;12.30;8.40;;;;;;;0.56;78.58;99440.46;105154;1265;61140;-25
2023/03/02 04:05:21;;;;;;;17.50;9.30;;;;;;;0.33;79.24;99439.36;105273;1264;61542;-25
2023/03/02 04:07:52;;;;;;;13.80;8.30;;;;;;;0.13;79.90;99439.64;105445;1257;74505;-25
2023/03/02 04:10:22;;;;;;;17.40;10.70;;;;;;;-0.03;80.74;99441.88;105277;1263;75828;-25
2023/03/02 04:12:55;;;;;;;20.40;10.20;;;;;;;-0.15;81.58;99438.64;105341;1258;73921;-25
2023/03/02 04:15:24;;;;;;;14.60;8.20;;;;;;;0.34;80.81;99439.65;105491;1258;61020;-26
2023/03/02 04:17:53;;;;;;;21.80;10.10;;;;;;;0.91;78.64;99441.84;105292;1260;61605;-26
2023/03/02 04:20:23;;;;;;;18.80;10.50;;;;;;;0.93;77.69;99435.94;105458;1263;75005;-26
2023/03/02 04:22:55;;;;;;;20.30;11.10;;;;;;;0.76;78.12;99431.76;105546;1270;75779;-26
2023/03/02 04:25:25;;;;;;;19.60;8.70;;;;;;;0.54;78.81;99425.66;105525;1257;74223;-26
2023/03/02 04:27:58;;;;;;;18.20;10.30;;;;;;;0.31;79.45;99422.87;105280;1263;61147;-25
2023/03/02 04:30:31;;;;;;;19.10;10.00;;;;;;;0.11;80.30;99423.84;105574;1262;61173;-25
2023/03/02 04:33:01;;;;;;;14.20;7.40;;;;;;;-0.02;80.97;99419.13;105188;1263;74592;-25
2023/03/02 04:35:30;;;;;;;19.40;10.90;;;;;;;0.46;80.63;99422.52;105346;1257;75862;-26
2023/03/02 04:38:00;;;;;;;17.10;9.20;;;;;;;0.98;78.76;99421.76;105293;1263;74246;-26
2023/03/02 04:40:29;;;;;;;21.50;11.70;;;;;;;1.02;77.85;99423.83;105274;1260;61818;-25
2023/03/02 04:42:58;;;;;;;19.00;11.00;;;;;;;0.85;78.15;99426.84;105296;1261;61831;-26
2023/03/02 04:45:27;;;;;;;19.40;10.70;;;;;;;0.61;78.84;99425.42;105567;1262;74618;-26
2023/03/02 04:47:59;;;;;;;18.50;10.40;;;;;;;0.38;79.56;99423.98;105267;1262;75745;-26
2023/03/02 04:50:29;;;;;;;20.20;11.40;;;;;;;0.16;80.48;99426.59;105234;1258;73021;-26
2023/03/02 04:52:58;;;;;;;17.00;9.30;;;;;;;-0.00;81.44;99430.51;105254;1257;61986;-25
2023/03/02 04:55:27;;;;;;;17.40;9.40;;;;;;;0.43;81.04;99431.51;105463;1261;61784;-25
2023/03/02 04:57:55;;;;;;;20.20;10.90;;;;;;;0.87;79.37;99437.84;105276;1258;74726;-26
2023/03/02 05:00:24;;;;;;;23.10;10.20;;;;;;;0.90;78.72;99430.41;105236;1261;75890;-25
2023/03/02 05:02:52;;;;;;;21.90;10.90;;;;;;;0.72;78.81;99434.13;105300;1258;74270;-25
2023/03/02 05:05:24;;;;;;;19.50;11.00;;;;;;;0.46;79.52;99430.02;105637;1263;61164;-26
2023/03/02 05:07:53;;;;;;;21.30;11.80;;;;;;;0.24;80.10;99434.69;105513;1263;61121;-26
2023/03/02 05:10:25;;;;;;;20.80;11.00;;;;;;;0.03;80.82;99435.88;105486;1258;74528;-25
2023/03/02 05:12:56;;;;;;;14.10;7.50;;;;;;;-0.11;81.66;99438.20;105222;1258;74709;-25
2023/03/02 05:15:36;;;;;;;18.30;9.70;;;;;;;0.36;81.45;99438.56;105183;1263;74176;-25
2023/03/02 05:18:07;;;;;;;19.70;10.30;;;;;;;0.94;79.32;99440.70;105135;1256;61167;-26
2023/03/02 05:20:35;;;;;;;18.60;10.90;;;;;;;0.95;78.30;99442.90;105298;1263;61059;-25
2023/03/02 05:23:06;;;;;;;21.60;10.80;;;;;;;0.77;78.63;99443.16;105673;1261;73559;-25
2023/03/02 05:25:36;;;;;;;18.70;9.90;;;;;;;0.54;79.30;99446.52;105293;1263;75869;-25
2023/03/02 05:28:05;;;;;;;20.80;10.90;;;;;;;0.33;80.22;99449.94;105460;1263;73195;-25
2023/03/02 05:30:36;;;;;;;20.90;13.10;;;;;;;0.16;81.30;99453.89;105659;1258;61064;-25
2023/03/02 05:33:05;;;;;;;17.50;9.90;;;;;;;0.10;82.32;99456.81;105601;1261;61840;-26
2023/03/02 05:35:34;;;;;;;19.70;10.90;;;;;;;0.66;81.71;99462.00;105491;1258;74735;-26
2023/03/02 05:38:04;;;;;;;18.00;9.80;;;;;;;1.21;79.76;99458.73;105158;1257;75540;-26
2023/03/02 05:40:33;;;;;;;23.60;12.60;;;;;;;1.29;78.53;99457.41;105167;1262;74511;-25
2023/03/02 05:43:02;;;;;;;24.10;12.50;;;;;;;1.12;78.80;99462.79;105375;1261;61001;-26
2023/03/02 05:45:34;;;;;;;19.20;11.40;;;;;;;1.00;79.13;99463.39;105487;1257;62074;-25
2023/03/02 05:48:03;;;;;;;22.20;12.00;;;;;;;0.85;79.85;99465.45;105568;1263;74525;-25
2023/03/02 05:50:32;;;;;;;19.30;9.70;;;;;;;0.68;80.59;99461.95;105517;1257;75700;-26
2023/03/02 05:53:01;;;;;;;14.10;9.30;;;;;;;0.63;80.99;99468.23;105546;1258;74163;-25
2023/03/02 05:55:29;;;;;;;22.00;11.30;;;;;;;1.28;79.90;99471.66;105395;1257;61112;-26
2023/03/02 05:57:58;;;;;;;19.70;11.00;;;;;;;1.73;78.08;99474.95;105271;1263;61642;-26
2023/03/02 06:00:27;;;;;;;22.80;12.90;;;;;;;1.72;77.27;99472.60;105244;1258;74369;-26
2023/03/02 06:02:56;;;;;;;24.40;13.00;;;;;;;1.61;77.54;99475.59;105306;1260;75530;-26
2023/03/02 06:05:25;;;;;;;20.20;11.00;;;;;;;1.37;78.06;99474.73;105292;1261;74187;-25
2023/03/02 06:07:55;;;;;;;23.70;12.90;;;;;;;1.16;78.88;99479.59;105464;1257;61042;-26
2023/03/02 06:10:24;;;;;;;25.20;14.00;;;;;;;1.02;79.35;99474.98;105347;1261;61909;-25
2023/03/02 06:12:52;;;;;;;18.60;10.40;;;;;;;0.97;80.19;99477.88;105254;1257;74532;-25
2023/03/02 06:15:22;;;;;;;25.20;12.10;;;;;;;1.50;79.06;99476.30;105469;1258;75871;-25
2023/03/02 06:17:51;;;;;;;21.40;12.30;;;;;;;1.90;77.19;99474.48;105611;1257;74451;-26
2023/03/02 06:20:20;;;;;;;17.20;11.40;;;;;;;1.95;76.51;99476.00;105621;1258;61697;-25
2023/03/02 06:22:50;;;;;;;23.80;11.80;;;;;;;1.71;76.86;99470.23;105575;1260;61735;-25
2023/03/02 06:25:21;;;;;;;23.90;14.00;;;;;;;1.44;77.50;99464.56;105417;1257;73586;-25
2023/03/02 06:27:51;;;;;;;28.00;15.00;;;;;;;1.17;79.06;99468.10;105208;1262;76162;-25
2023/03/02 06:30:23;;;;;;;29.70;14.90;;;;;;;0.96;79.95;99464.40;105351;1261;73337;-25
2023/03/02 06:32:51;;;;;;;21.80;11.20;;;;;;;1.07;80.64;99462.64;105107;1257;62644;-25
2023/03/02 06:35:20;;;;;;;20.40;11.40;;;;;;;1.73;78.52;99466.54;105616;1266;61689;-25
2023/03/02 06:37:49;;;;;;;18.70;10.80;;;;;;;2.03;76.84;99463.18;105594;1259;73550;-25
2023/03/02 06:40:20;;;;;;;23.60;13.30;;;;;;;1.90;76.47;99463.67;105574;1258;74845;-25
2023/03/02 06:42:49;;;;;;;18.70;10.60;;;;;;;1.73;76.81;99465.20;105525;1258;73235;-25
2023/03/02 06:45:20;;;;;;;24.50;13.70;;;;;;;1.58;77.73;99468.33;105453;1257;61151;-25
2023/03/02 06:47:49;;;;;;;23.90;11.60;;;;;;;1.47;78.24;99470.09;105374;1260;61553;-25
2023/03/02 06:50:17;;;;;;;25.70;14.00;;;;;;;1.25;79.59;99468.52;105483;1257;74683;-25
2023/03/02 06:52:47;;;;;;;25.70;11.90;;;;;;;1.30;79.49;99467.31;105530;1261;75788;-25
2023/03/02 06:55:15;;;;;;;22.50;13.90;;;;;;;1.88;77.91;99468.72;105588;1256;73849;-25
2023/03/02 06:57:44;;;;;;;22.80;12.10;;;;;;;2.04;76.74;99459.73;105359;1261;61881;-25
2023/03/02 07:00:17;;;;;;;25.60;13.30;;;;;;;1.79;77.22;99462.89;105471;1260;61635;-25
2023/03/02 07:02:45;;;;;;;25.90;11.90;;;;;;;1.63;77.66;99460.98;105454;1260;74692;-25
2023/03/02 07:05:15;;;;;;;24.80;15.00;;;;;;;1.51;77.93;99460.19;105412;1257;75805;-26
2023/03/02 07:07:48;;;;;;;;;;;;;;;1.33;79.13;99462.25;105383;1258;74315;-25
2023/03/02 07:10:17;;;;;;;13.30;7.20;;;;;;;1.36;79.54;99466.89;105688;1258;62708;-26
2023/03/02 07:12:46;;;;;;;18.10;10.70;;;;;;;1.85;78.12;99463.89;105417;1260;61608;-26
2023/03/02 07:15:21;;;;;;;18.90;11.30;;;;;;;2.11;76.20;99463.72;105398;1258;74260;-26
2023/03/02 07:17:50;;;;;;;17.20;9.00;;;;;;;2.16;76.34;99464.39;105238;1260;75514;-24
2023/03/02 07:20:18;;;;;;;21.40;12.50;;;;;;;2.09;76.31;99466.02;105424;1257;74243;-25
2023/03/02 07:22:48;;;;;;;27.70;15.10;;;;;;;1.88;77.35;99465.97;105502;1257;61062;-25
2023/03/02 07:25:17;;;;;;;27.20;15.50;;;;;;;1.74;77.56;99469.09;105325;1260;61877;-26
2023/03/02 07:27:48;;;;;;;22.00;12.90;;;;;;;1.42;78.57;99468.04;105276;1257;74392;-26
2023/03/02 07:30:20;;;;;;;19.30;10.60;;;;;;;1.44;79.05;99468.16;105493;1257;74853;-26
2023/03/02 07:32:49;;;;;;;21.80;10.70;;;;;;;2.19;77.82;99465.13;105193;1260;74220;-26
2023/03/02 07:35:18;;;;;;;22.60;13.60;;;;;;;2.47;75.18;99456.44;105357;1260;61753;-25
2023/03/02 07:37:47;;;;;;;20.00;10.60;;;;;;;2.45;75.05;99460.29;105349;1260;61639;-25
2023/03/02 07:40:15;;;;;;;18.80;11.70;;;;;;;2.38;75.20;99452.89;105472;1257;75118;-26
2023/03/02 07:42:44;;;;;;;30.50;16.00;;;;;;;2.18;75.65;99457.09;105604;1257;75919;-26
2023/03/02 07:45:15;;;;;;;26.80;15.50;;;;;;;1.81;77.37;99461.09;105620;1260;74050;-26
2023/03/02 07:47:44;;;;;;;23.40;12.90;;;;;;;1.82;77.72;99461.23;105620;1260;61159;-25
2023/03/02 07:50:12;;;;;;;26.30;15.40;;;;;;;1.84;77.64;99459.28;105694;1260;61118;-25
2023/03/02 07:52:41;;;;;;;21.80;12.60;;;;;;;1.88;77.60;99454.33;105517;1257;75373;-25
2023/03/02 07:55:10;;;;;;;21.20;11.40;;;;;;;2.34;76.23;99446.71;105600;1254;74895;-25
2023/03/02 07:57:38;;;;;;;21.70;12.30;;;;;;;2.72;74.55;99451.45;105580;1254;74206;-26
2023/03/02 08:00:08;;;;;;;26.40;14.40;;;;;;;3.00;73.99;99451.66;105709;1254;62075;-25
2023/03/02 08:02:40;;;;;;;26.90;13.80;;;;;;;3.01;73.80;99452.61;105526;1257;61863;-26
2023/03/02 08:05:09;;;;;;;24.70;12.00;;;;;;;2.61;74.35;99447.83;105689;1257;74770;-26
2023/03/02 08:07:39;;;;;;;28.30;13.90;;;;;;;2.41;75.29;99446.44;105505;1257;74738;-26
2023/03/02 08:10:10;;;;;;;32.90;12.80;;;;;;;2.42;75.82;99444.83;105636;1256;72953;-27
2023/03/02 08:12:38;;;;;;;21.50;12.90;;;;;;;2.29;75.18;99442.44;105706;1254;61109;-25
2023/03/02 08:15:08;;;;;;;26.80;15.50;;;;;;;2.32;76.00;99443.19;105853;1254;61863;-26
2023/03/02 08:17:37;;;;;;;26.30;12.30;;;;;;;2.37;75.83;99439.70;105280;1260;75423;-25
2023/03/02 08:20:07;;;;;;;25.10;15.20;;;;;;;2.45;75.17;99440.60;105827;1254;75892;-26
2023/03/02 08:22:36;;;;;;;23.10;12.10;;;;;;;2.52;74.96;99441.52;105518;1253;74172;-26
2023/03/02 08:25:06;;;;;;;22.10;12.70;;;;;;;2.57;75.02;99442.34;105568;1254;61236;-26
2023/03/02 08:27:34;;;;;;;21.80;12.10;;;;;;;2.64;75.06;99441.55;105579;1260;61805;-25
2023/03/02 08:30:03;;;;;;;21.50;11.40;;;;;;;2.77;74.67;99443.18;105580;1256;75169;-25
2023/03/02 08:32:33;;;;;;;21.20;12.60;;;;;;;2.90;73.93;99436.82;105915;1257;76143;-25
2023/03/02 08:35:02;;;;;;;27.10;12.90;;;;;;;3.25;74.05;99440.45;105565;1254;74070;-24
2023/03/02 08:37:31;;;;;;;19.70;10.30;;;;;;;3.39;72.60;99443.39;105441;1254;61147;-25
2023/03/02 08:40:00;;;;;;;25.50;15.00;;;;;;;3.53;72.21;99438.99;105732;1254;61578;-24
2023/03/02 08:42:29;;;;;;;26.70;12.80;;;;;;;3.72;71.94;99439.49;105593;1253;75342;-25
2023/03/02 08:44:57;;;;;;;19.20;11.10;;;;;;;3.77;71.03;99435.16;105577;1254;75840;-24
2023/03/02 08:47:29;;;;;;;21.30;12.70;;;;;;;3.67;70.98;99440.41;105484;1254;74080;-25
2023/03/02 08:49:57;;;;;;;20.80;11.10;;;;;;;3.37;71.76;99438.34;105577;1254;61058;-25
2023/03/02 08:52:26;;;;;;;23.10;13.20;;;;;;;3.74;71.21;99437.00;105564;1253;61099;-25
2023/03/02 08:54:55;;;;;;;21.80;10.70;;;;;;;3.63;71.49;99435.98;105553;1253;75363;-24
2023/03/02 08:57:24;;;;;;;20.70;9.50;;;;;;;3.87;71.55;99436.04;105727;1254;75830;-24
2023/03/02 08:59:53;;;;;;;20.90;11.10;;;;;;;4.34;68.44;99426.05;105562;1253;73429;-25
2023/03/02 09:02:22;;;;;;;17.00;7.90;;;;;;;4.67;67.18;99432.16;105592;1257;61722;-25
2023/03/02 09:04:50;;;;;;;20.20;12.30;;;;;;;4.64;67.01;99432.80;105576;1257;61885;-25
2023/03/02 09:07:20;;;;;;;16.80;8.00;;;;;;;4.79;67.49;99435.52;105561;1257;75370;-25
2023/03/02 09:09:53;;;;;;;21.10;12.50;;;;;;;4.93;65.58;99428.59;105533;1254;75856;-25
2023/03/02 09:12:21;;;;;;;14.10;8.90;;;;;;;4.87;66.04;99428.55;105582;1254;74192;-25
2023/03/02 09:14:50;;;;;;;16.80;9.50;;;;;;;4.68;67.56;99430.73;105627;1254;62012;-25
2023/03/02 09:17:19;;;;;;;15.80;10.10;;;;;;;5.05;66.19;99422.83;105625;1253;61319;-25
2023/03/02 09:19:49;;;;;;;18.90;11.70;;;;;;;5.08;65.26;99427.85;105872;1254;75336;-25
2023/03/02 09:22:17;;;;;;;15.50;9.50;;;;;;;5.27;65.41;99425.30;105901;1254;74944;-25
2023/03/02 09:24:47;;;;;;;18.90;10.10;;;;;;;5.18;66.08;99427.31;105780;1256;74170;-25
2023/03/02 09:27:16;;;;;;;18.20;10.40;;;;;;;5.47;65.07;99423.70;105785;1255;61173;-25
2023/03/02 09:29:44;;;;;;;17.20;10.10;;;;;;;5.81;62.78;99421.14;105579;1257;61726;-25
2023/03/02 09:32:14;;;;;;;19.10;8.60;;;;;;;5.66;62.99;99419.75;105575;1254;75448;-25
2023/03/02 09:34:43;;;;;;;17.10;10.20;;;;;;;5.69;63.35;99418.53;105535;1254;75817;-25
2023/03/02 09:37:11;;;;;;;16.90;9.70;;;;;;;5.27;64.13;99421.31;105580;1254;74217;-25
2023/03/02 09:39:40;;;;;;;17.70;9.50;;;;;;;5.29;64.70;99418.66;105823;1254;62020;-26
2023/03/02 09:42:42;;;;;;;15.50;8.80;;;;;;;5.38;63.83;99417.98;105556;1254;62045;-25
2023/03/02 09:45:28;;;;;;;14.90;9.30;;;;;;;5.10;64.29;99417.05;105473;1254;75380;-25
2023/03/02 09:48:31;;;;;;;12.60;7.60;;;;;;;5.29;63.43;99412.79;105526;1257;77614;-25
2023/03/02 09:51:30;;;;;;;14.60;7.10;;;;;;;5.21;62.72;99411.66;105689;1259;73094;-25
2023/03/02 09:54:03;;;;;;;17.50;9.10;;;;;;;4.90;64.15;99411.74;105732;1259;62211;-25
2023/03/02 09:56:34;;;;;;;15.20;9.20;;;;;;;4.38;65.22;99408.86;105716;1257;61861;-25
2023/03/02 09:59:37;;;;;;;14.50;7.90;;;;;;;4.70;63.98;99405.89;105486;1260;75191;-25
2023/03/02 10:02:27;;;;;;;16.40;8.90;;;;;;;4.97;63.42;99404.64;105764;1254;74750;-25
2023/03/02 10:04:59;;;;;;;14.50;9.10;;;;;;;5.26;62.46;99402.29;105529;1256;73502;-25
2023/03/02 10:07:30;;;;;;;16.10;8.80;;;;;;;5.06;63.16;99401.45;105561;1254;61090;-25
2023/03/02 10:10:08;;;;;;;16.00;8.80;;;;;;;5.03;62.64;99402.60;105504;1254;61557;-25
2023/03/02 10:12:45;;;;;;;14.80;8.40;;;;;;;5.17;61.82;99396.90;105617;1253;75437;-25
2023/03/02 10:15:41;;;;;;;16.10;9.30;;;;;;;5.24;61.91;99393.60;105660;1256;75889;-26
2023/03/02 10:18:20;;;;;;;12.30;7.60;;;;;;;5.11;62.87;99399.64;105723;1257;73994;-25
2023/03/02 10:20:48;;;;;;;14.10;8.50;;;;;;;5.38;60.62;99391.64;105560;1254;61223;-25
2023/03/02 10:23:43;;;;;;;11.70;6.60;;;;;;;5.32;61.69;99393.50;105575;1252;61501;-25
2023/03/02 10:26:18;;;;;;;18.20;8.50;;;;;;;5.24;61.23;99390.68;105775;1254;75502;-26
2023/03/02 10:28:48;;;;;;;11.60;7.70;;;;;;;5.20;61.80;99396.55;105819;1254;75776;-25
2023/03/02 10:31:25;;;;;;;13.50;7.80;;;;;;;5.06;61.26;99389.71;105691;1258;73867;-25
2023/03/02 10:33:54;;;;;;;11.90;7.50;;;;;;;5.19;60.72;99381.61;105620;1258;61385;-25
2023/03/02 10:36:23;;;;;;;7.40;4.70;;;;;;;5.75;60.11;99379.77;105917;1253;61263;-25
2023/03/02 10:38:52;;;;;;;7.10;4.80;;;;;;;6.35;54.83;99373.30;105776;1256;74281;-25
2023/03/02 10:41:39;;;;;;;9.30;5.80;;;;;;;6.04;55.45;99372.50;105755;1257;75516;-25
2023/03/02 10:44:17;;;;;;;7.00;4.00;;;;;;;6.16;56.91;99376.80;105795;1256;73683;-25
2023/03/02 10:46:46;;;;;;;9.90;5.10;;;;;;;6.17;55.91;99377.44;105802;1254;61891;-25
2023/03/02 10:49:27;;;;;;;6.20;3.90;;;;;;;6.78;54.45;99373.02;105648;1256;61603;-25
2023/03/02 10:52:12;;;;;;;5.20;2.90;;;;;;;6.44;53.01;99365.58;105496;1254;75438;-25
2023/03/02 10:54:41;;;;;;;7.30;3.30;;;;;;;6.31;53.63;99370.27;105173;1254;74984;-26
2023/03/02 10:57:41;;;;;;;5.60;2.10;;;;;;;6.53;52.02;99369.66;105698;1257;73154;-25
2023/03/02 11:00:23;;;;;;;6.80;3.70;;;;;;;6.56;51.01;99362.78;105763;1254;61170;-25
2023/03/02 11:03:04;;;;;;;5.40;3.20;;;;;;;6.51;50.46;99365.85;105820;1254;61887;-25
2023/03/02 11:05:37;;;;;;;4.70;3.30;;;;;;;6.84;50.67;99357.98;105851;1254;74382;-26
2023/03/02 11:08:16;;;;;;;13.70;4.30;;;;;;;6.29;51.48;99363.11;105815;1257;74686;-25
2023/03/02 11:10:57;;;;;;;8.80;4.10;;;;;;;5.74;54.62;99360.57;105710;1253;74127;-25
2023/03/02 11:13:37;;;;;;;3.90;2.50;;;;;;;5.58;52.76;99364.17;105654;1254;61900;-26
2023/03/02 11:16:18;;;;;;;3.60;2.20;;;;;;;5.54;52.29;99367.52;105487;1254;61667;-24
2023/03/02 11:19:15;;;;;;;4.50;2.10;;;;;;;5.43;52.73;99363.66;105734;1254;74226;-24
2023/03/02 11:22:22;;;;;;;7.50;4.30;;;;;;;5.02;54.15;99361.03;105672;1254;75853;-25
2023/03/02 11:24:54;;;;;;;10.30;5.20;;;;;;;4.92;58.82;99365.50;105928;1256;73276;-24
2023/03/02 11:27:33;;;;;;;11.80;6.80;;;;;;;4.92;59.97;99365.86;105715;1253;61070;-24
2023/03/02 11:30:09;;;;;;;15.10;4.00;;;;;;;4.69;60.06;99365.33;105820;1257;62215;-26
2023/03/02 11:33:15;;;;;;;8.00;4.70;;;;;;;4.69;60.09;99362.77;105825;1253;74227;-24
2023/03/02 11:35:47;;;;;;;12.00;5.80;;;;;;;4.71;60.06;99354.40;105760;1253;74625;-25
2023/03/02 11:38:22;;;;;;;9.20;5.00;;;;;;;4.68;58.95;99354.06;105882;1256;74477;-25
2023/03/02 11:41:02;;;;;;;10.00;6.80;;;;;;;4.65;60.27;99357.45;105770;1254;61164;-25
2023/03/02 11:43:31;;;;;;;9.70;5.60;;;;;;;4.62;60.51;99353.49;105737;1259;61596;-25
2023/03/02 11:46:06;;;;;;;7.40;4.70;;;;;;;4.58;60.06;99349.71;105854;1254;75297;-25
2023/03/02 11:48:47;;;;;;;13.20;5.50;;;;;;;4.55;60.86;99353.35;105734;1254;76020;-25
2023/03/02 11:51:16;;;;;;;12.80;6.40;;;;;;;4.63;61.45;99354.63;105708;1254;74219;-26
2023/03/02 11:53:44;;;;;;;12.80;6.70;;;;;;;4.68;61.01;99352.48;105633;1252;61223;-25